Time;durP1;ratioP1;P1;durP2;ratioP2;P2;SDS_P1;SDS_P2;PMS_P1;PMS_P2;Temp;Humidity;BMP_temperature;BMP_pressure;BME280_temperature;BME280_humidity;BME280_pressure;Samples;Min_cycle;Max_cycle;Signal;HPM_P1;HPM_P2
2022/04/07 00:01:28;;;;;;;6.90;4.10;;;;;;;8.45;76.30;97675.99;103524;1302;24196;-25
2022/04/07 00:03:54;;;;;;;6.60;3.80;;;;;;;8.46;76.64;97669.80;103539;1301;24381;-31
2022/04/07 00:06:20;;;;;;;8.10;3.90;;;;;;;8.38;76.86;97666.59;103549;1300;24342;-26
2022/04/07 00:08:45;;;;;;;6.30;3.30;;;;;;;8.40;76.76;97664.20;103563;1300;22496;-28
2022/04/07 00:11:12;;;;;;;8.60;3.70;;;;;;;8.33;76.98;97666.71;103250;1303;25228;-28
2022/04/07 00:13:38;;;;;;;6.40;4.30;;;;;;;8.34;76.93;97660.78;103549;1300;24213;-31
2022/04/07 00:16:04;;;;;;;10.40;4.70;;;;;;;8.28;77.20;97654.56;103511;1302;24294;-27
2022/04/07 00:18:30;;;;;;;7.60;3.50;;;;;;;8.28;77.24;97652.87;103514;1300;24411;-24
2022/04/07 00:20:56;;;;;;;5.20;2.90;;;;;;;8.24;77.20;97646.34;103577;1300;24196;-29
2022/04/07 00:23:22;;;;;;;5.30;3.00;;;;;;;8.26;77.01;97644.83;103577;1300;24282;-28
2022/04/07 00:25:48;;;;;;;7.10;3.60;;;;;;;8.21;77.11;97643.70;103604;1302;24401;-25
2022/04/07 00:28:14;;;;;;;7.50;3.80;;;;;;;8.47;76.75;97645.18;103519;1300;25874;-28
2022/04/07 00:30:40;;;;;;;9.50;4.00;;;;;;;8.56;76.39;97643.02;103559;1300;24240;-31
2022/04/07 00:33:07;;;;;;;8.20;3.30;;;;;;;8.80;75.62;97638.88;103444;1300;24245;-31
2022/04/07 00:35:33;;;;;;;4.80;3.10;;;;;;;8.94;74.69;97635.61;103540;1300;24257;-25
2022/04/07 00:37:59;;;;;;;13.90;3.80;;;;;;;9.06;74.30;97635.94;103532;1300;24212;-25
2022/04/07 00:40:25;;;;;;;5.10;2.80;;;;;;;9.12;73.95;97634.80;103517;1300;22515;-25
2022/04/07 00:42:52;;;;;;;7.50;3.60;;;;;;;9.02;73.92;97632.09;103507;1300;24218;-26
2022/04/07 00:45:19;;;;;;;3.70;1.90;;;;;;;8.96;74.24;97625.73;103527;1300;24301;-31
2022/04/07 00:47:45;;;;;;;6.90;3.80;;;;;;;9.03;73.88;97628.48;103612;1300;22576;-26
2022/04/07 00:50:11;;;;;;;8.30;3.50;;;;;;;9.00;73.88;97623.63;103601;1302;23599;-25
2022/04/07 00:52:41;;;;;;;5.40;3.30;;;;;;;8.72;74.68;97621.70;103573;1300;23590;-27
2022/04/07 00:55:07;;;;;;;7.90;4.20;;;;;;;8.56;75.52;97619.58;103543;1300;23610;-27
2022/04/07 00:57:33;;;;;;;5.60;3.00;;;;;;;8.66;75.26;97618.56;103512;1300;24354;-25
2022/04/07 00:59:58;;;;;;;5.20;3.00;;;;;;;8.85;74.68;97615.36;103597;1300;24301;-25
2022/04/07 01:02:24;;;;;;;12.30;4.50;;;;;;;9.01;74.06;97614.50;103551;1301;24282;-25
2022/04/07 01:04:50;;;;;;;6.40;4.20;;;;;;;8.90;74.33;97611.36;103549;1301;24195;-25
2022/04/07 01:07:15;;;;;;;5.50;2.30;;;;;;;8.85;74.37;97614.79;103541;1302;24376;-25
2022/04/07 01:09:41;;;;;;;7.90;3.70;;;;;;;8.78;74.55;97616.99;103519;1302;24283;-28
2022/04/07 01:12:07;;;;;;;5.70;2.90;;;;;;;8.84;74.40;97620.52;103570;1300;24225;-31
2022/04/07 01:14:33;;;;;;;7.00;4.00;;;;;;;8.60;75.03;97621.02;103479;1302;24283;-28
2022/04/07 01:16:59;;;;;;;5.00;3.00;;;;;;;8.28;75.88;97621.36;103534;1301;24214;-25
2022/04/07 01:19:24;;;;;;;15.90;3.70;;;;;;;8.14;76.47;97619.67;103546;1300;22505;-29
2022/04/07 01:21:50;;;;;;;6.80;3.70;;;;;;;7.89;76.87;97617.75;103563;1300;22517;-26
2022/04/07 01:24:18;;;;;;;9.90;3.50;;;;;;;7.74;77.23;97619.05;103572;1299;24203;-29
2022/04/07 01:26:45;;;;;;;13.70;4.60;;;;;;;7.62;77.55;97616.52;103555;1300;22640;-29
2022/04/07 01:29:13;;;;;;;6.90;4.00;;;;;;;7.51;77.57;97617.65;103541;1300;22497;-29
2022/04/07 01:31:39;;;;;;;10.90;3.90;;;;;;;7.41;78.00;97616.84;103544;1300;24320;-29
2022/04/07 01:34:07;;;;;;;8.10;4.70;;;;;;;7.35;78.09;97614.15;103565;1300;24213;-29
2022/04/07 01:36:34;;;;;;;6.40;2.70;;;;;;;7.29;78.45;97613.95;103598;1300;23768;-26
2022/04/07 01:39:00;;;;;;;7.20;3.70;;;;;;;7.20;78.56;97613.34;103540;1302;23915;-29
2022/04/07 01:41:26;;;;;;;8.60;4.30;;;;;;;7.14;79.25;97612.61;103533;1300;23306;-25
2022/04/07 01:43:54;;;;;;;8.20;4.60;;;;;;;7.12;79.30;97611.97;103601;1300;25155;-28
2022/04/07 01:46:20;;;;;;;12.30;4.40;;;;;;;7.13;79.54;97611.80;103606;1300;24222;-25
2022/04/07 01:48:45;;;;;;;6.60;3.70;;;;;;;7.13;79.76;97608.96;103516;1300;24304;-29
2022/04/07 01:51:12;;;;;;;10.90;4.40;;;;;;;7.07;79.98;97602.80;103604;1302;24266;-28
2022/04/07 01:53:38;;;;;;;8.90;4.20;;;;;;;7.01;79.91;97598.23;103566;1302;24238;-30
2022/04/07 01:56:04;;;;;;;9.80;4.10;;;;;;;6.94;79.97;97600.65;103511;1302;24317;-29
2022/04/07 01:58:30;;;;;;;7.90;4.20;;;;;;;6.85;80.20;97599.20;103328;1300;24244;-26
2022/04/07 02:00:56;;;;;;;7.90;4.10;;;;;;;6.82;80.70;97599.36;103575;1300;24362;-29
2022/04/07 02:03:21;;;;;;;9.40;4.40;;;;;;;6.79;81.06;97602.33;103533;1302;24240;-25
2022/04/07 02:05:47;;;;;;;6.00;4.00;;;;;;;6.81;81.10;97600.39;103560;1300;24321;-27
2022/04/07 02:08:13;;;;;;;8.30;3.60;;;;;;;6.81;81.18;97599.84;103482;1302;22501;-25
2022/04/07 02:10:38;;;;;;;6.40;3.70;;;;;;;6.88;81.12;97596.20;103578;1302;23598;-25
2022/04/07 02:13:04;;;;;;;5.90;2.60;;;;;;;6.84;81.45;97596.87;103383;1302;24320;-25
2022/04/07 02:15:30;;;;;;;5.60;3.20;;;;;;;6.81;81.52;97597.89;103572;1300;22508;-24
2022/04/07 02:17:56;;;;;;;8.90;4.40;;;;;;;6.79;81.38;97593.83;103556;1300;24246;-25
2022/04/07 02:20:22;;;;;;;4.80;3.30;;;;;;;6.79;81.46;97589.41;103560;1300;24251;-29
2022/04/07 02:22:48;;;;;;;7.60;2.90;;;;;;;6.76;81.37;97588.88;103577;1300;24448;-27
2022/04/07 02:25:14;;;;;;;7.20;3.50;;;;;;;6.74;81.45;97586.03;103548;1300;24302;-25
2022/04/07 02:27:40;;;;;;;8.70;3.50;;;;;;;6.77;81.54;97588.75;103617;1300;24220;-31
2022/04/07 02:30:08;;;;;;;4.80;2.50;;;;;;;6.76;81.60;97589.05;103527;1302;24291;-25
2022/04/07 02:32:34;;;;;;;6.80;4.00;;;;;;;6.74;81.59;97587.91;103481;1301;23610;-25
2022/04/07 02:35:00;;;;;;;6.40;2.70;;;;;;;6.67;81.95;97588.67;103568;1301;24306;-27
2022/04/07 02:37:26;;;;;;;9.50;3.50;;;;;;;6.65;81.94;97587.16;103477;1302;24196;-28
2022/04/07 02:39:53;;;;;;;6.40;4.30;;;;;;;6.70;82.32;97588.19;103555;1301;24359;-26
2022/04/07 02:42:19;;;;;;;5.70;3.50;;;;;;;6.62;82.38;97587.96;103497;1300;22931;-29
2022/04/07 02:44:45;;;;;;;8.80;3.70;;;;;;;6.57;82.32;97581.62;103578;1300;24237;-25
2022/04/07 02:47:11;;;;;;;7.50;2.80;;;;;;;6.51;82.56;97579.05;103576;1302;24365;-25
2022/04/07 02:49:39;;;;;;;10.60;3.00;;;;;;;6.49;82.79;97582.18;103382;1302;24459;-28
2022/04/07 02:52:08;;;;;;;7.70;3.80;;;;;;;6.47;82.97;97577.02;103601;1300;23586;-25
2022/04/07 02:54:33;;;;;;;4.10;2.60;;;;;;;6.50;83.13;97571.76;103571;1299;24304;-25
2022/04/07 02:56:59;;;;;;;7.10;3.10;;;;;;;6.49;83.34;97571.80;103541;1301;24301;-25
2022/04/07 02:59:25;;;;;;;4.20;3.10;;;;;;;6.51;83.19;97572.04;103555;1300;22503;-29
2022/04/07 03:01:51;;;;;;;3.70;2.20;;;;;;;6.49;82.98;97574.50;103523;1300;24243;-25
2022/04/07 03:04:18;;;;;;;7.40;3.00;;;;;;;6.52;83.00;97570.73;103577;1300;24215;-25
2022/04/07 03:06:44;;;;;;;4.40;2.20;;;;;;;6.54;83.08;97564.71;103670;1300;22500;-27
2022/04/07 03:09:09;;;;;;;4.90;2.40;;;;;;;6.59;82.95;97566.92;103516;1302;24240;-29
2022/04/07 03:11:35;;;;;;;7.30;3.20;;;;;;;6.59;82.97;97570.02;103573;1300;22707;-28
2022/04/07 03:14:01;;;;;;;5.90;3.10;;;;;;;6.59;82.95;97564.91;103585;1300;24301;-25
2022/04/07 03:16:27;;;;;;;5.40;3.40;;;;;;;6.59;82.98;97563.23;103563;1302;24247;-29
2022/04/07 03:18:52;;;;;;;5.90;2.90;;;;;;;6.54;83.13;97561.67;103572;1302;22709;-28
2022/04/07 03:21:18;;;;;;;5.00;2.70;;;;;;;6.55;83.28;97561.09;103541;1301;22756;-29
2022/04/07 03:23:44;;;;;;;5.40;3.30;;;;;;;6.59;83.22;97561.76;103513;1301;24249;-29
2022/04/07 03:26:10;;;;;;;3.90;2.20;;;;;;;6.65;83.14;97567.34;103524;1300;24295;-29
2022/04/07 03:28:36;;;;;;;4.50;2.90;;;;;;;6.67;83.39;97563.43;103521;1300;23960;-28
2022/04/07 03:31:02;;;;;;;4.70;2.70;;;;;;;6.68;83.14;97571.79;103615;1300;24196;-29
2022/04/07 03:33:28;;;;;;;6.30;2.80;;;;;;;6.67;83.22;97565.84;103476;1301;22815;-29
2022/04/07 03:35:54;;;;;;;4.10;2.40;;;;;;;6.65;83.15;97563.77;103589;1300;24301;-31
2022/04/07 03:38:20;;;;;;;5.80;2.90;;;;;;;6.72;83.28;97559.05;103547;1301;24229;-29
2022/04/07 03:40:45;;;;;;;4.00;2.50;;;;;;;6.71;83.35;97556.86;103477;1302;24355;-25
2022/04/07 03:43:11;;;;;;;4.00;3.00;;;;;;;6.70;83.40;97555.39;103531;1300;24214;-28
2022/04/07 03:45:37;;;;;;;4.30;2.50;;;;;;;6.75;83.38;97553.19;103393;1302;24219;-28
2022/04/07 03:48:03;;;;;;;7.20;2.60;;;;;;;6.70;83.32;97554.87;103541;1302;24327;-25
2022/04/07 03:50:29;;;;;;;4.60;2.20;;;;;;;6.69;83.56;97554.59;103285;1302;24229;-28
2022/04/07 03:52:55;;;;;;;5.90;3.00;;;;;;;6.69;83.20;97552.38;103505;1302;24299;-29
2022/04/07 03:55:22;;;;;;;3.70;2.50;;;;;;;6.68;83.47;97555.20;103470;1300;24198;-28
2022/04/07 03:57:48;;;;;;;3.00;2.00;;;;;;;6.65;83.44;97552.40;103510;1301;22511;-28
2022/04/07 04:00:16;;;;;;;4.90;2.80;;;;;;;6.64;83.46;97547.82;103571;1300;24278;-29
2022/04/07 04:02:42;;;;;;;4.90;2.30;;;;;;;6.61;83.50;97543.66;103541;1300;24375;-26
2022/04/07 04:05:08;;;;;;;4.00;2.20;;;;;;;6.62;83.59;97542.54;103570;1302;23832;-29
2022/04/07 04:07:34;;;;;;;5.80;3.30;;;;;;;6.55;84.04;97543.11;103482;1302;24266;-26
2022/04/07 04:10:01;;;;;;;4.50;2.30;;;;;;;6.53;84.22;97544.08;103471;1302;24334;-31
2022/04/07 04:12:26;;;;;;;4.50;2.90;;;;;;;6.65;84.19;97540.13;103213;1302;353330;-28
2022/04/07 04:14:52;;;;;;;3.70;2.30;;;;;;;6.64;83.95;97536.98;103511;1300;24659;-28
2022/04/07 04:17:18;;;;;;;5.20;2.40;;;;;;;6.85;83.45;97534.51;103497;1300;24407;-28
2022/04/07 04:19:44;;;;;;;2.50;1.60;;;;;;;6.97;83.20;97535.71;103574;1300;24369;-25
2022/04/07 04:22:10;;;;;;;3.90;2.20;;;;;;;7.25;82.12;97538.32;103537;1301;24258;-29
2022/04/07 04:24:36;;;;;;;8.70;2.30;;;;;;;7.38;81.60;97533.75;103474;1302;24218;-29
2022/04/07 04:27:02;;;;;;;3.80;2.40;;;;;;;7.53;81.15;97530.02;103460;1302;24286;-28
2022/04/07 04:29:28;;;;;;;5.30;2.30;;;;;;;7.38;81.55;97537.58;103476;1300;24225;-29
2022/04/07 04:31:54;;;;;;;2.30;1.10;;;;;;;7.56;81.21;97529.98;103521;1300;24218;-29
2022/04/07 04:34:19;;;;;;;3.00;1.90;;;;;;;7.72;80.17;97531.36;103556;1301;22509;-29
2022/04/07 04:36:45;;;;;;;2.70;1.50;;;;;;;7.52;80.85;97533.78;103499;1300;24303;-29
2022/04/07 04:39:11;;;;;;;5.20;1.80;;;;;;;7.26;81.74;97533.39;103499;1300;24291;-29
2022/04/07 04:41:37;;;;;;;3.20;2.20;;;;;;;7.28;82.26;97536.16;103517;1300;24254;-25
2022/04/07 04:44:02;;;;;;;3.60;2.60;;;;;;;7.53;82.75;97535.52;103571;1300;22881;-29
2022/04/07 04:46:28;;;;;;;3.10;2.00;;;;;;;7.79;82.30;97537.02;103567;1300;24196;-26
2022/04/07 04:48:54;;;;;;;4.40;2.30;;;;;;;8.08;81.76;97539.44;103593;1300;22757;-25
2022/04/07 04:51:20;;;;;;;3.40;1.10;;;;;;;8.35;80.57;97540.78;103541;1300;24269;-29
2022/04/07 04:53:46;;;;;;;2.20;1.60;;;;;;;8.58;79.51;97541.65;103551;1300;24252;-29
2022/04/07 04:56:11;;;;;;;3.60;2.00;;;;;;;8.93;77.38;97543.09;103578;1300;24138;-25
2022/04/07 04:58:37;;;;;;;3.80;1.00;;;;;;;8.75;77.48;97542.79;103474;1300;23750;-25
2022/04/07 05:01:03;;;;;;;5.20;1.70;;;;;;;8.65;78.20;97545.59;103565;1300;24362;-25
2022/04/07 05:03:29;;;;;;;2.00;1.10;;;;;;;8.84;77.03;97547.42;103583;1300;24251;-29
2022/04/07 05:05:55;;;;;;;2.10;1.50;;;;;;;8.86;76.14;97546.73;103609;1300;24281;-29
2022/04/07 05:08:20;;;;;;;1.40;1.00;;;;;;;8.82;76.07;97537.95;103536;1300;24213;-27
2022/04/07 05:10:46;;;;;;;3.80;0.90;;;;;;;8.98;75.02;97546.91;103538;1300;24237;-28
2022/04/07 05:13:12;;;;;;;2.20;1.00;;;;;;;9.07;74.67;97541.65;103495;1300;24798;-31
2022/04/07 05:15:39;;;;;;;2.40;1.50;;;;;;;9.25;73.73;97536.13;103484;1300;24662;-28
2022/04/07 05:18:05;;;;;;;1.40;0.90;;;;;;;9.07;74.10;97534.27;103557;1300;22730;-25
2022/04/07 05:20:31;;;;;;;3.20;0.90;;;;;;;9.14;73.73;97540.33;103540;1300;24145;-29
2022/04/07 05:22:57;;;;;;;1.70;0.80;;;;;;;9.31;73.31;97540.11;103543;1300;24371;-29
2022/04/07 05:25:22;;;;;;;3.20;2.10;;;;;;;9.40;72.66;97540.85;103514;1300;24214;-29
2022/04/07 05:27:48;;;;;;;2.80;1.60;;;;;;;9.41;73.00;97548.78;103512;1297;22734;-25
2022/04/07 05:30:15;;;;;;;5.80;2.10;;;;;;;9.40;72.62;97548.08;103471;1302;24226;-28
2022/04/07 05:32:43;;;;;;;3.00;1.40;;;;;;;9.39;73.01;97549.40;103532;1300;24362;-25
2022/04/07 05:35:10;;;;;;;9.20;2.00;;;;;;;9.28;73.52;97544.98;103629;1300;24315;-25
2022/04/07 05:37:36;;;;;;;18.10;2.00;;;;;;;9.35;73.17;97536.66;103584;1300;22514;-28
2022/04/07 05:40:02;;;;;;;1.60;1.30;;;;;;;9.02;74.82;97539.97;103552;1300;24238;-28
2022/04/07 05:42:29;;;;;;;2.10;0.90;;;;;;;9.08;74.62;97543.60;103544;1300;24004;-28
2022/04/07 05:44:54;;;;;;;1.80;1.00;;;;;;;9.00;75.22;97538.60;103571;1300;24150;-24
2022/04/07 05:47:20;;;;;;;2.20;1.00;;;;;;;9.23;74.29;97538.15;103474;1300;22798;-25
2022/04/07 05:49:49;;;;;;;1.60;0.70;;;;;;;9.24;74.07;97540.00;103430;1300;24497;-30
2022/04/07 05:52:15;;;;;;;2.00;0.80;;;;;;;9.52;72.83;97542.07;103479;1302;24304;-28
2022/04/07 05:54:40;;;;;;;1.20;0.90;;;;;;;9.28;74.01;97543.73;103519;1300;24236;-24
2022/04/07 05:57:06;;;;;;;1.10;0.80;;;;;;;9.61;72.54;97543.84;103591;1300;24214;-29
2022/04/07 05:59:32;;;;;;;1.50;1.10;;;;;;;9.44;73.43;97545.96;103605;1300;24371;-25
2022/04/07 06:01:57;;;;;;;2.30;1.00;;;;;;;9.50;72.99;97542.98;103531;1302;23398;-29
2022/04/07 06:04:23;;;;;;;5.30;1.10;;;;;;;9.47;72.73;97545.22;103577;1300;24357;-29
2022/04/07 06:06:49;;;;;;;2.40;1.00;;;;;;;9.64;72.71;97539.38;103516;1300;23946;-28
2022/04/07 06:09:14;;;;;;;2.10;1.30;;;;;;;9.78;71.82;97540.48;103536;1300;24391;-30
2022/04/07 06:11:40;;;;;;;1.50;0.90;;;;;;;9.78;71.97;97542.02;103571;1300;24225;-28
2022/04/07 06:14:06;;;;;;;1.20;0.80;;;;;;;9.76;71.74;97545.35;103580;1300;22492;-25
2022/04/07 06:16:32;;;;;;;3.50;0.70;;;;;;;9.74;71.56;97543.13;103485;1300;24396;-28
2022/04/07 06:18:57;;;;;;;2.50;1.00;;;;;;;9.43;73.09;97546.27;103604;1300;24289;-25
2022/04/07 06:21:24;;;;;;;2.10;1.10;;;;;;;9.38;74.24;97544.52;103563;1300;24662;-29
2022/04/07 06:23:50;;;;;;;1.60;1.50;;;;;;;9.36;74.88;97537.39;103541;1300;24254;-25
2022/04/07 06:26:18;;;;;;;5.80;1.40;;;;;;;9.47;75.12;97530.38;103597;1300;24409;-26
2022/04/07 06:28:44;;;;;;;2.10;0.90;;;;;;;9.58;74.99;97524.56;103603;1300;22948;-25
2022/04/07 06:31:10;;;;;;;2.20;1.00;;;;;;;9.93;73.44;97519.20;103571;1300;24249;-28
2022/04/07 06:33:36;;;;;;;3.60;0.80;;;;;;;10.16;71.88;97513.77;103537;1300;24218;-24
2022/04/07 06:36:03;;;;;;;3.00;0.90;;;;;;;10.44;70.25;97510.15;103522;1300;24290;-25
2022/04/07 06:38:30;;;;;;;2.90;1.10;;;;;;;10.39;69.59;97514.09;103602;1300;24226;-27
2022/04/07 06:40:57;;;;;;;2.40;0.90;;;;;;;10.41;70.52;97510.59;103600;1300;23519;-27
2022/04/07 06:43:23;;;;;;;2.20;0.80;;;;;;;10.58;70.31;97514.42;103532;1300;24304;-31
2022/04/07 06:45:49;;;;;;;2.00;1.00;;;;;;;10.78;70.26;97513.83;103559;1300;24191;-29
2022/04/07 06:48:14;;;;;;;2.10;1.30;;;;;;;11.00;69.70;97514.65;103621;1300;24201;-29
2022/04/07 06:50:40;;;;;;;2.40;1.10;;;;;;;11.13;69.23;97512.06;103531;1300;22518;-29
2022/04/07 06:53:06;;;;;;;12.80;1.80;;;;;;;11.28;68.40;97505.95;103545;1300;24211;-24
2022/04/07 06:55:32;;;;;;;3.10;1.30;;;;;;;11.44;68.67;97505.63;103594;1300;24360;-28
2022/04/07 06:58:00;;;;;;;3.10;1.40;;;;;;;11.79;66.80;97494.92;103556;1300;22717;-29
2022/04/07 07:00:28;;;;;;;1.60;1.10;;;;;;;12.00;65.67;97500.46;103570;1300;24394;-29
2022/04/07 07:02:54;;;;;;;2.10;1.10;;;;;;;12.07;64.15;97497.80;103612;1300;24376;-29
2022/04/07 07:05:21;;;;;;;2.10;1.10;;;;;;;11.98;64.34;97498.89;103523;1300;22594;-26
2022/04/07 07:07:47;;;;;;;28.50;1.60;;;;;;;11.96;65.19;97500.64;103542;1300;23836;-29
2022/04/07 07:10:12;;;;;;;2.30;1.40;;;;;;;12.13;65.79;97506.65;103432;1300;25223;-26
2022/04/07 07:12:39;;;;;;;2.10;1.20;;;;;;;12.52;65.15;97501.80;103554;1300;24217;-25
2022/04/07 07:15:05;;;;;;;1.30;0.90;;;;;;;12.70;62.45;97502.50;103570;1300;24249;-29
2022/04/07 07:17:33;;;;;;;4.80;1.20;;;;;;;12.68;63.85;97501.55;103565;1300;24265;-25
2022/04/07 07:20:01;;;;;;;0.90;0.40;;;;;;;12.90;62.80;97503.13;103544;1300;24374;-30
2022/04/07 07:22:27;;;;;;;1.40;0.80;;;;;;;13.30;60.39;97498.96;103556;1300;24214;-25
2022/04/07 07:24:53;;;;;;;2.90;1.00;;;;;;;13.61;59.03;97490.82;103541;1300;24365;-28
2022/04/07 07:27:18;;;;;;;2.40;0.70;;;;;;;13.56;59.05;97492.74;103540;1300;24214;-26
2022/04/07 07:29:44;;;;;;;0.80;0.50;;;;;;;13.77;58.18;97492.61;103553;1300;23740;-25
2022/04/07 07:32:10;;;;;;;5.20;1.00;;;;;;;13.93;57.84;97479.03;103430;1300;24301;-25
2022/04/07 07:34:35;;;;;;;1.30;0.70;;;;;;;13.72;57.62;97489.25;103542;1300;24278;-27
2022/04/07 07:37:01;;;;;;;2.50;0.90;;;;;;;13.52;58.46;97477.98;103547;1301;24281;-25
2022/04/07 07:39:27;;;;;;;2.00;0.70;;;;;;;13.44;58.33;97477.83;103584;1300;22579;-25
2022/04/07 07:41:53;;;;;;;0.60;0.30;;;;;;;13.55;59.41;97468.89;103548;1300;22649;-25
2022/04/07 07:44:19;;;;;;;1.40;0.80;;;;;;;13.45;58.76;97471.08;103560;1300;24291;-31
2022/04/07 07:46:44;;;;;;;2.20;0.70;;;;;;;13.68;58.28;97457.84;103572;1300;24349;-25
2022/04/07 07:49:10;;;;;;;2.10;0.60;;;;;;;14.15;57.76;97457.46;103538;1300;22496;-29
2022/04/07 07:51:37;;;;;;;2.20;1.00;;;;;;;14.32;57.14;97454.88;103553;1300;24250;-25
2022/04/07 07:54:04;;;;;;;3.70;0.60;;;;;;;13.98;57.73;97457.00;103456;1300;24266;-28
2022/04/07 07:56:30;;;;;;;3.80;0.80;;;;;;;14.20;58.07;97455.16;103585;1300;24243;-25
2022/04/07 07:58:55;;;;;;;1.20;0.80;;;;;;;14.47;58.15;97446.85;103504;1300;22508;-28
2022/04/07 08:01:21;;;;;;;3.20;1.00;;;;;;;14.95;56.21;97443.23;103497;1299;24246;-29
2022/04/07 08:03:47;;;;;;;4.40;0.70;;;;;;;14.89;56.56;97445.45;103563;1300;24268;-27
2022/04/07 08:06:14;;;;;;;1.40;0.80;;;;;;;15.61;54.79;97440.45;103513;1302;24345;-25
2022/04/07 08:08:39;;;;;;;3.90;0.90;;;;;;;15.21;55.05;97448.14;103582;1300;24418;-25
2022/04/07 08:11:05;;;;;;;1.20;0.80;;;;;;;15.53;55.46;97452.71;103547;1300;24249;-25
2022/04/07 08:13:31;;;;;;;0.60;0.30;;;;;;;16.14;54.69;97449.83;103615;1300;24257;-29
2022/04/07 08:15:57;;;;;;;2.50;0.70;;;;;;;16.81;51.05;97445.96;103611;1300;24218;-29
2022/04/07 08:18:23;;;;;;;1.00;0.30;;;;;;;16.05;52.24;97446.70;103482;1300;24273;-25
2022/04/07 08:20:49;;;;;;;7.80;0.90;;;;;;;15.46;54.29;97445.91;103477;1300;24304;-25
2022/04/07 08:23:15;;;;;;;0.60;0.50;;;;;;;15.33;52.76;97440.15;103543;1300;22512;-29
2022/04/07 08:25:41;;;;;;;0.30;0.30;;;;;;;15.71;51.61;97437.20;103559;1300;24332;-25
2022/04/07 08:28:06;;;;;;;1.60;0.50;;;;;;;15.13;53.38;97440.98;103539;1300;23913;-29
2022/04/07 08:30:34;;;;;;;2.10;0.40;;;;;;;15.56;52.55;97434.89;103547;1300;24388;-30
2022/04/07 08:33:01;;;;;;;0.50;0.30;;;;;;;15.53;54.18;97440.10;103524;1300;24214;-29
2022/04/07 08:35:27;;;;;;;0.80;0.30;;;;;;;16.61;50.21;97433.69;103578;1302;24838;-29
2022/04/07 08:37:53;;;;;;;1.00;0.60;;;;;;;15.92;51.36;97435.12;103500;1300;24245;-28
2022/04/07 08:40:19;;;;;;;1.60;0.50;;;;;;;14.89;54.12;97432.08;103613;1300;24273;-25
2022/04/07 08:42:45;;;;;;;0.50;0.30;;;;;;;14.87;54.55;97423.45;103551;1301;24226;-30
2022/04/07 08:45:11;;;;;;;2.00;0.60;;;;;;;15.22;53.83;97417.78;103626;1300;24446;-30
2022/04/07 08:47:37;;;;;;;0.70;0.60;;;;;;;15.64;54.44;97429.05;103511;1301;24307;-28
2022/04/07 08:50:03;;;;;;;2.00;0.40;;;;;;;15.59;55.41;97421.46;103528;1300;24217;-28
2022/04/07 08:52:30;;;;;;;0.60;0.40;;;;;;;16.03;53.12;97423.42;103565;1300;22961;-25
2022/04/07 08:54:56;;;;;;;0.50;0.30;;;;;;;16.31;51.75;97414.05;103577;1300;24426;-28
2022/04/07 08:57:21;;;;;;;1.00;0.40;;;;;;;16.26;51.91;97410.89;103504;1300;24252;-28
2022/04/07 08:59:47;;;;;;;0.60;0.40;;;;;;;15.59;52.38;97411.43;103528;1300;22827;-28
2022/04/07 09:02:13;;;;;;;0.80;0.50;;;;;;;15.57;54.24;97405.66;103542;1300;24261;-30
2022/04/07 09:04:40;;;;;;;1.50;0.50;;;;;;;16.16;51.66;97401.46;103485;1300;24327;-25
2022/04/07 09:07:06;;;;;;;0.90;0.30;;;;;;;15.99;52.38;97393.13;103600;1300;25232;-29
2022/04/07 09:09:33;;;;;;;0.60;0.30;;;;;;;16.01;51.52;97381.79;103437;1301;24313;-29
2022/04/07 09:11:59;;;;;;;1.10;0.30;;;;;;;15.67;53.04;97388.66;103490;1300;24488;-29
2022/04/07 09:14:25;;;;;;;0.40;0.40;;;;;;;16.41;51.25;97383.44;103438;1302;22854;-25
2022/04/07 09:16:55;;;;;;;2.20;0.80;;;;;;;16.19;51.59;97377.70;103566;1300;23586;-27
2022/04/07 09:19:21;;;;;;;1.70;0.30;;;;;;;15.42;53.87;97379.59;103617;1300;24146;-25
2022/04/07 09:21:48;;;;;;;2.20;0.30;;;;;;;15.91;53.06;97371.12;103533;1300;24003;-25
2022/04/07 09:24:15;;;;;;;0.60;0.40;;;;;;;15.86;53.09;97363.84;103538;1300;24218;-27
2022/04/07 09:26:43;;;;;;;0.60;0.40;;;;;;;16.44;52.04;97365.10;103541;1300;24237;-28
2022/04/07 09:29:10;;;;;;;0.60;0.40;;;;;;;16.86;51.21;97370.22;103444;1300;22607;-29
2022/04/07 09:31:38;;;;;;;1.00;0.50;;;;;;;16.64;51.60;97361.46;103543;1300;24407;-29
2022/04/07 09:34:05;;;;;;;0.90;0.30;;;;;;;16.60;51.37;97366.92;103610;1300;22728;-25
2022/04/07 09:36:30;;;;;;;0.40;0.40;;;;;;;16.21;51.33;97362.42;103431;1302;24240;-24
2022/04/07 09:39:00;;;;;;;1.20;0.40;;;;;;;16.92;50.84;97366.19;103611;1300;22521;-25
2022/04/07 09:41:28;;;;;;;0.50;0.40;;;;;;;17.29;50.04;97353.09;103656;1300;25458;-25
2022/04/07 09:43:58;;;;;;;1.00;0.40;;;;;;;17.62;47.24;97350.81;103605;1300;23927;-25
2022/04/07 09:46:25;;;;;;;0.70;0.40;;;;;;;17.37;49.02;97342.29;103534;1301;24312;-28
2022/04/07 09:48:58;;;;;;;1.30;0.60;;;;;;;17.15;49.26;97339.80;103371;1302;24228;-30
2022/04/07 09:51:23;;;;;;;1.60;0.20;;;;;;;16.92;50.33;97346.00;103582;1300;25430;-31
2022/04/07 09:53:50;;;;;;;0.70;0.30;;;;;;;17.02;49.69;97318.08;103504;1300;24366;-25
2022/04/07 09:56:16;;;;;;;0.50;0.30;;;;;;;16.48;50.06;97336.78;103526;1300;24311;-27
2022/04/07 09:58:41;;;;;;;0.20;0.20;;;;;;;16.18;50.62;97325.84;103435;1302;24214;-30
2022/04/07 10:01:07;;;;;;;0.90;0.50;;;;;;;15.98;51.24;97330.70;103586;1300;24242;-25
2022/04/07 10:03:33;;;;;;;5.40;0.20;;;;;;;16.39;51.42;97325.83;103540;1300;24251;-29
2022/04/07 10:05:59;;;;;;;0.70;0.40;;;;;;;17.47;48.32;97302.21;103559;1302;24218;-26
2022/04/07 10:08:25;;;;;;;0.20;0.10;;;;;;;17.02;48.80;97311.26;103574;1300;24983;-29
2022/04/07 10:10:52;;;;;;;1.20;0.50;;;;;;;17.01;48.93;97322.47;103510;1302;24256;-30
2022/04/07 10:13:18;;;;;;;0.50;0.30;;;;;;;16.54;50.18;97315.95;103554;1300;24328;-29
2022/04/07 10:15:44;;;;;;;1.40;0.40;;;;;;;16.73;48.56;97310.90;103576;1300;24301;-25
2022/04/07 10:18:16;;;;;;;1.40;0.60;;;;;;;16.52;49.09;97312.89;103492;1302;24728;-27
2022/04/07 10:20:44;;;;;;;0.30;0.30;;;;;;;16.09;51.97;97309.55;103541;1300;22862;-25
2022/04/07 10:23:25;;;;;;;0.40;0.30;;;;;;;15.50;52.80;97291.58;103474;1302;23297;-28
2022/04/07 10:25:51;;;;;;;3.50;0.20;;;;;;;15.58;52.74;97294.84;103572;1300;24290;-25
2022/04/07 10:28:17;;;;;;;1.30;0.30;;;;;;;15.77;53.43;97295.98;103481;1300;24266;-28
2022/04/07 10:30:48;;;;;;;12.90;0.80;;;;;;;16.30;52.23;97287.25;103506;1300;22505;-25
2022/04/07 10:33:20;;;;;;;9.30;0.50;;;;;;;16.64;50.41;97290.61;103560;1300;22501;-29
2022/04/07 10:35:46;;;;;;;0.20;0.20;;;;;;;16.42;50.77;97289.80;103599;1300;24254;-27
2022/04/07 10:38:14;;;;;;;3.50;0.20;;;;;;;16.05;49.93;97284.71;103525;1302;24269;-25
2022/04/07 10:40:48;;;;;;;0.80;0.50;;;;;;;15.75;50.76;97282.86;103616;1300;24297;-28
2022/04/07 10:43:14;;;;;;;0.60;0.30;;;;;;;15.07;52.11;97282.29;103528;1300;24301;-28
2022/04/07 10:45:41;;;;;;;0.30;0.20;;;;;;;15.67;51.40;97275.52;103500;1300;24278;-26
2022/04/07 10:48:14;;;;;;;0.40;0.20;;;;;;;16.22;50.53;97274.32;103567;1300;24241;-25
2022/04/07 10:50:46;;;;;;;5.50;0.50;;;;;;;16.79;49.81;97269.73;103604;1300;26329;-29
2022/04/07 10:53:19;;;;;;;0.30;0.20;;;;;;;17.07;48.09;97260.89;103588;1300;24226;-29
2022/04/07 10:55:52;;;;;;;0.40;0.30;;;;;;;17.61;44.88;97244.25;103536;1300;22554;-28
2022/04/07 10:58:19;;;;;;;0.30;0.10;;;;;;;16.53;46.23;97258.31;103592;1300;23611;-28
2022/04/07 11:00:44;;;;;;;0.80;0.40;;;;;;;16.36;47.23;97246.84;103515;1300;24306;-25
2022/04/07 11:03:13;;;;;;;0.60;0.50;;;;;;;15.79;49.30;97240.96;103527;1300;23850;-25
2022/04/07 11:05:45;;;;;;;0.20;0.20;;;;;;;16.96;46.90;97223.75;103514;1300;24328;-25
2022/04/07 11:08:11;;;;;;;0.40;0.40;;;;;;;16.80;46.30;97223.64;103615;1300;23935;-28
2022/04/07 11:10:39;;;;;;;0.70;0.20;;;;;;;15.95;48.15;97226.92;103534;1300;24781;-29
2022/04/07 11:13:05;;;;;;;0.40;0.40;;;;;;;16.61;48.07;97215.52;103589;1300;25349;-25
2022/04/07 11:15:33;;;;;;;1.40;0.30;;;;;;;16.94;46.56;97215.77;103511;1300;25300;-25
2022/04/07 11:18:05;;;;;;;1.10;0.10;;;;;;;16.39;47.55;97213.38;103579;1300;24464;-28
2022/04/07 11:20:31;;;;;;;5.70;0.40;;;;;;;16.53;47.87;97201.41;103567;1300;22499;-29
2022/04/07 11:22:56;;;;;;;0.10;0.10;;;;;;;17.25;46.56;97192.20;103570;1300;24278;-29
2022/04/07 11:25:24;;;;;;;0.80;0.50;;;;;;;17.48;45.72;97182.02;103514;1300;24255;-29